createdAt,value
2018-12-06T00:00:20.779Z,15.77
2018-12-06T00:02:50.037Z,17.03
2018-12-06T00:05:19.885Z,20.80
2018-12-06T00:08:21.860Z,18.23
2018-12-06T00:10:51.149Z,18.27
2018-12-06T00:13:20.471Z,18.15
2018-12-06T00:15:49.692Z,17.90
2018-12-06T00:18:19.157Z,17.93
2018-12-06T00:20:48.460Z,19.53
2018-12-06T00:23:17.825Z,19.13
2018-12-06T00:25:47.052Z,17.87
2018-12-06T00:28:17.039Z,17.87
2018-12-06T00:30:46.281Z,17.47
2018-12-06T00:33:16.181Z,21.10
2018-12-06T00:35:45.443Z,20.27
2018-12-06T00:38:15.584Z,20.63
2018-12-06T00:40:44.865Z,19.57
2018-12-06T00:43:14.907Z,22.57
2018-12-06T00:45:44.138Z,17.77
2018-12-06T00:48:17.082Z,21.27
2018-12-06T00:50:46.349Z,21.47
2018-12-06T00:53:16.417Z,17.87
2018-12-06T00:55:45.651Z,16.17
2018-12-06T00:58:15.278Z,18.33
2018-12-06T01:00:44.585Z,16.23
2018-12-06T01:03:13.882Z,16.20
2018-12-06T01:05:43.106Z,19.47
2018-12-06T01:08:12.952Z,17.20
2018-12-06T01:10:42.206Z,22.70
2018-12-06T01:13:11.549Z,17.83
2018-12-06T01:15:40.845Z,20.23
2018-12-06T01:18:10.134Z,18.80
2018-12-06T01:20:39.349Z,16.13
2018-12-06T01:23:08.702Z,18.40
2018-12-06T01:25:38.062Z,19.02
2018-12-06T01:28:07.443Z,17.80
2018-12-06T01:30:36.702Z,20.30
2018-12-06T01:33:06.399Z,17.62
2018-12-06T01:35:35.674Z,21.20
2018-12-06T01:38:05.075Z,19.83
2018-12-06T01:40:34.424Z,19.90
2018-12-06T01:43:03.763Z,22.67
2018-12-06T01:45:33.018Z,18.70
2018-12-06T01:48:02.267Z,20.80
2018-12-06T01:50:31.493Z,20.27
2018-12-06T01:53:00.709Z,19.30
2018-12-06T01:55:29.965Z,17.97
2018-12-06T01:57:59.273Z,20.97
2018-12-06T02:00:28.575Z,20.15
2018-12-06T02:02:57.766Z,18.53
2018-12-06T02:05:26.960Z,22.63
2018-12-06T02:07:56.182Z,22.30
2018-12-06T02:10:25.434Z,20.60
2018-12-06T02:12:54.747Z,19.30
2018-12-06T02:15:24.071Z,20.27
2018-12-06T02:17:53.221Z,17.60
2018-12-06T02:20:22.397Z,17.90
2018-12-06T02:22:51.578Z,19.17
2018-12-06T02:25:21.018Z,20.70
2018-12-06T02:27:50.320Z,20.30
2018-12-06T02:30:19.922Z,15.60
2018-12-06T02:32:49.112Z,16.10
2018-12-06T02:35:19.470Z,18.73
2018-12-06T02:37:48.770Z,19.90
2018-12-06T02:40:19.182Z,21.70
2018-12-06T02:42:48.471Z,20.02
2018-12-06T02:45:19.306Z,19.77
2018-12-06T02:47:48.483Z,18.35
2018-12-06T02:50:18.898Z,22.03
2018-12-06T02:52:48.095Z,17.60
2018-12-06T02:55:18.583Z,20.07
2018-12-06T02:57:47.771Z,18.43
2018-12-06T03:00:18.617Z,19.03
2018-12-06T03:02:47.799Z,24.07
2018-12-06T03:05:18.951Z,17.20
2018-12-06T03:07:48.170Z,20.10
2018-12-06T03:10:18.456Z,16.87
2018-12-06T03:12:47.634Z,17.30
2018-12-06T03:15:17.657Z,17.13
2018-12-06T03:17:46.855Z,15.30
2018-12-06T03:20:17.152Z,25.43
2018-12-06T03:22:46.349Z,18.57
2018-12-06T03:25:16.921Z,19.10
2018-12-06T03:27:49.117Z,18.00
2018-12-06T03:30:18.793Z,17.37
2018-12-06T03:32:49.000Z,19.23
2018-12-06T03:35:18.655Z,20.70
2018-12-06T03:37:47.954Z,20.95
2018-12-06T03:40:18.390Z,23.10
2018-12-06T03:42:47.650Z,19.23
2018-12-06T03:45:17.649Z,24.83
2018-12-06T03:47:46.971Z,19.03
2018-12-06T03:50:17.227Z,21.10
2018-12-06T03:52:46.410Z,19.33
2018-12-06T03:55:16.593Z,19.23
2018-12-06T03:57:45.917Z,20.00
2018-12-06T04:00:16.209Z,24.30
2018-12-06T04:02:45.531Z,17.03
2018-12-06T04:05:15.331Z,23.40
2018-12-06T04:07:44.690Z,18.97
2018-12-06T04:10:14.672Z,17.70
2018-12-06T04:12:43.996Z,22.20
2018-12-06T04:15:13.306Z,18.48
2018-12-06T04:17:42.626Z,18.00
2018-12-06T04:20:12.092Z,24.33
2018-12-06T04:22:41.293Z,18.50
2018-12-06T04:25:10.609Z,20.33
2018-12-06T04:27:39.826Z,20.17
2018-12-06T04:30:09.135Z,17.23
2018-12-06T04:32:38.343Z,19.77
2018-12-06T04:35:08.457Z,17.83
2018-12-06T04:37:37.799Z,21.00
2018-12-06T04:40:07.082Z,22.47
2018-12-06T04:42:36.348Z,18.67
2018-12-06T04:45:06.765Z,20.73
2018-12-06T04:47:35.998Z,19.50
2018-12-06T04:50:05.335Z,17.70
2018-12-06T04:52:34.550Z,20.03
2018-12-06T04:55:03.885Z,17.10
2018-12-06T04:57:33.086Z,21.40
2018-12-06T05:00:05.722Z,21.00
2018-12-06T05:02:34.973Z,20.43
2018-12-06T05:05:04.345Z,21.53
2018-12-06T05:07:33.566Z,19.17
2018-12-06T05:10:02.849Z,22.30
2018-12-06T05:12:32.065Z,19.27
2018-12-06T05:15:01.314Z,26.27
2018-12-06T05:17:30.514Z,28.07
2018-12-06T05:19:59.739Z,21.73
2018-12-06T05:22:29.033Z,23.93
2018-12-06T05:24:58.275Z,25.33
2018-12-06T05:27:27.557Z,19.10
2018-12-06T05:29:56.768Z,24.10
2018-12-06T05:32:26.058Z,21.50
2018-12-06T05:34:55.279Z,21.43
2018-12-06T05:37:24.501Z,30.00
2018-12-06T05:39:53.758Z,19.90
2018-12-06T05:42:23.030Z,20.60
2018-12-06T05:44:52.268Z,25.03
2018-12-06T05:47:21.620Z,26.50
2018-12-06T05:49:50.995Z,24.25
2018-12-06T05:52:20.234Z,24.20
2018-12-06T05:54:49.614Z,23.23
2018-12-06T05:57:18.815Z,30.03
2018-12-06T05:59:48.060Z,27.13
2018-12-06T06:02:18.078Z,26.30
2018-12-06T06:04:47.437Z,25.63
2018-12-06T06:07:17.228Z,25.47
2018-12-06T06:09:48.221Z,33.67
2018-12-06T06:12:17.881Z,28.10
2018-12-06T06:14:47.131Z,23.90
2018-12-06T06:17:16.627Z,25.30
2018-12-06T06:19:45.857Z,31.73
2018-12-06T06:22:15.113Z,25.40
2018-12-06T06:24:44.322Z,27.10
2018-12-06T06:27:14.064Z,22.23
2018-12-06T06:29:44.248Z,25.65
2018-12-06T06:32:14.167Z,31.83
2018-12-06T06:34:43.363Z,35.23
2018-12-06T06:37:12.969Z,28.02
2018-12-06T06:39:42.242Z,33.18
2018-12-06T06:42:11.477Z,29.53
2018-12-06T06:44:40.653Z,30.27
2018-12-06T06:47:09.897Z,32.00
2018-12-06T06:49:39.101Z,31.93
2018-12-06T06:52:08.333Z,39.00
2018-12-06T06:54:37.690Z,34.53
2018-12-06T06:57:06.978Z,45.52
2018-12-06T06:59:36.279Z,41.53
2018-12-06T07:02:05.568Z,35.60
2018-12-06T07:04:34.876Z,37.03
2018-12-06T07:07:04.097Z,34.47
2018-12-06T07:09:33.297Z,40.43
2018-12-06T07:12:02.552Z,40.80
2018-12-06T07:14:31.800Z,40.73
2018-12-06T07:17:01.013Z,41.40
2018-12-06T07:19:30.224Z,44.90
2018-12-06T07:21:59.434Z,42.60
2018-12-06T07:24:28.674Z,42.78
2018-12-06T07:26:57.918Z,44.60
2018-12-06T07:29:27.174Z,42.67
2018-12-06T07:31:56.469Z,47.60
2018-12-06T07:34:25.650Z,48.27
2018-12-06T07:36:54.949Z,46.20
2018-12-06T07:39:24.201Z,40.17
2018-12-06T07:41:53.507Z,39.73
2018-12-06T07:44:22.882Z,48.23
2018-12-06T07:46:52.162Z,48.10
2018-12-06T07:49:21.370Z,46.77
2018-12-06T07:51:50.757Z,51.07
2018-12-06T07:54:20.066Z,46.37
2018-12-06T07:56:49.257Z,43.83
2018-12-06T07:59:18.441Z,34.90
2018-12-06T08:01:47.705Z,37.60
2018-12-06T08:04:16.984Z,36.10
2018-12-06T08:06:46.254Z,37.13
2018-12-06T08:09:15.549Z,40.67
2018-12-06T08:11:44.803Z,34.60
2018-12-06T08:14:15.087Z,35.90
2018-12-06T08:16:44.386Z,40.23
2018-12-06T08:19:14.006Z,36.27
2018-12-06T08:21:42.844Z,51.77
2018-12-06T08:24:12.167Z,39.63
2018-12-06T08:26:41.482Z,35.17
2018-12-06T08:29:10.923Z,36.20
2018-12-06T08:31:40.115Z,37.37
2018-12-06T08:34:09.788Z,44.93
2018-12-06T08:36:39.000Z,43.70
2018-12-06T08:39:08.589Z,37.20
2018-12-06T08:41:37.829Z,39.17
2018-12-06T08:44:07.092Z,41.53
2018-12-06T08:46:36.323Z,36.57
2018-12-06T08:49:05.570Z,29.20
2018-12-06T08:51:34.808Z,40.00
2018-12-06T08:54:04.151Z,36.50
2018-12-06T08:56:33.421Z,37.17
2018-12-06T08:59:02.644Z,34.10
2018-12-06T09:01:31.940Z,38.33
2018-12-06T09:04:01.244Z,36.93
2018-12-06T09:06:30.447Z,36.17
2018-12-06T09:08:59.712Z,39.33
2018-12-06T09:11:28.941Z,39.10
2018-12-06T09:13:58.191Z,39.77
2018-12-06T09:16:27.472Z,41.47
2018-12-06T09:18:56.674Z,37.83
2018-12-06T09:21:25.903Z,43.43
2018-12-06T09:23:55.176Z,43.43
2018-12-06T09:26:24.468Z,34.95
2018-12-06T09:28:53.734Z,38.90
2018-12-06T09:31:23.032Z,47.07
2018-12-06T09:34:04.718Z,45.53
2018-12-06T09:36:33.970Z,36.73
2018-12-06T09:39:03.292Z,40.63
2018-12-06T09:41:32.680Z,47.17
2018-12-06T09:44:01.918Z,42.23
2018-12-06T09:46:33.923Z,40.97
2018-12-06T09:49:04.416Z,39.20
2018-12-06T09:51:33.756Z,46.27
2018-12-06T09:54:03.071Z,37.70
2018-12-06T09:56:32.422Z,41.10
2018-12-06T09:59:01.657Z,44.55
2018-12-06T10:01:30.969Z,40.27
2018-12-06T10:04:00.214Z,48.47
2018-12-06T10:06:29.500Z,42.43
2018-12-06T10:08:58.797Z,47.10
2018-12-06T10:11:28.112Z,45.77
2018-12-06T10:13:58.099Z,61.98
2018-12-06T10:16:28.348Z,51.27
2018-12-06T10:18:58.712Z,43.27
2018-12-06T10:21:29.351Z,46.27
2018-12-06T10:23:58.667Z,45.73
2018-12-06T10:26:27.983Z,43.70
2018-12-06T10:28:57.262Z,52.87
2018-12-06T10:31:26.502Z,50.60
2018-12-06T10:33:55.739Z,44.47
2018-12-06T10:36:24.969Z,50.03
2018-12-06T10:38:55.298Z,51.87
2018-12-06T10:41:24.566Z,47.23
2018-12-06T10:43:54.038Z,49.03
2018-12-06T10:46:23.331Z,53.20
2018-12-06T10:48:52.702Z,51.20
2018-12-06T10:51:33.029Z,49.67
2018-12-06T10:54:02.268Z,48.60
2018-12-06T10:56:36.740Z,58.90
2018-12-06T10:59:06.081Z,48.50
2018-12-06T11:01:41.582Z,50.20
2018-12-06T11:04:13.457Z,53.50
2018-12-06T11:06:43.804Z,50.87
2018-12-06T11:09:14.533Z,43.17
2018-12-06T11:11:44.521Z,46.10
2018-12-06T11:14:17.032Z,49.57
2018-12-06T11:16:46.317Z,51.65
2018-12-06T11:19:15.563Z,56.93
2018-12-06T11:21:44.860Z,46.42
2018-12-06T11:24:14.101Z,48.23
2018-12-06T11:26:43.307Z,50.70
2018-12-06T11:29:12.744Z,46.63
2018-12-06T11:31:42.017Z,45.00
2018-12-06T11:34:11.335Z,42.37
2018-12-06T11:36:40.744Z,42.23
2018-12-06T11:39:10.457Z,44.87
2018-12-06T11:41:43.050Z,43.67
2018-12-06T11:44:09.473Z,42.10
2018-12-06T11:46:38.831Z,40.23
2018-12-06T11:49:08.599Z,40.47
2018-12-06T11:51:37.868Z,39.37
2018-12-06T11:54:07.143Z,47.70
2018-12-06T11:56:36.395Z,38.40
2018-12-06T11:59:05.734Z,36.40
2018-12-06T12:01:34.995Z,38.27
2018-12-06T12:04:04.325Z,50.27
2018-12-06T12:06:33.543Z,36.45
2018-12-06T12:09:02.829Z,39.00
2018-12-06T12:11:32.150Z,39.47
2018-12-06T12:14:01.458Z,41.47
2018-12-06T12:16:30.686Z,100.70
2018-12-06T12:18:59.908Z,67.17
2018-12-06T12:21:29.319Z,37.13
2018-12-06T12:23:58.569Z,38.27
2018-12-06T12:26:27.792Z,34.60
2018-12-06T12:28:57.006Z,36.80
2018-12-06T12:31:26.301Z,37.67
2018-12-06T12:33:55.622Z,30.47
2018-12-06T12:36:24.944Z,30.50
2018-12-06T12:38:54.171Z,30.03
2018-12-06T12:41:23.440Z,30.30
2018-12-06T12:43:52.633Z,37.20
2018-12-06T12:46:21.865Z,28.73
2018-12-06T12:48:51.129Z,31.50
2018-12-06T12:51:20.372Z,31.03
2018-12-06T12:53:49.629Z,32.80
2018-12-06T12:56:18.859Z,29.47
2018-12-06T12:58:48.087Z,28.83
2018-12-06T13:01:17.370Z,30.03
2018-12-06T13:03:46.669Z,25.00
2018-12-06T13:06:15.871Z,29.50
2018-12-06T13:08:45.098Z,27.50
2018-12-06T13:11:14.448Z,25.67
2018-12-06T13:13:43.709Z,25.77
2018-12-06T13:16:13.003Z,25.53
2018-12-06T13:18:42.253Z,29.20
2018-12-06T13:21:11.555Z,27.13
2018-12-06T13:23:40.777Z,31.53
2018-12-06T13:26:10.423Z,29.37
2018-12-06T13:28:39.625Z,33.00
2018-12-06T13:31:09.228Z,30.00
2018-12-06T13:33:38.477Z,33.00
2018-12-06T13:36:11.852Z,35.87
2018-12-06T13:38:41.095Z,38.70
2018-12-06T13:41:10.638Z,39.40
2018-12-06T13:43:39.961Z,34.08
2018-12-06T13:46:09.879Z,34.47
2018-12-06T13:48:39.085Z,33.10
2018-12-06T13:51:08.745Z,41.77
2018-12-06T13:53:38.061Z,37.20
2018-12-06T13:56:10.277Z,35.40
2018-12-06T13:58:39.548Z,35.90
2018-12-06T14:01:09.553Z,35.33
2018-12-06T14:03:38.594Z,37.60
2018-12-06T14:06:07.956Z,33.03
2018-12-06T14:08:38.292Z,32.93
2018-12-06T14:11:06.462Z,33.10
2018-12-06T14:13:35.824Z,33.90
2018-12-06T14:16:10.377Z,31.80
2018-12-06T14:18:34.397Z,28.20
2018-12-06T14:21:03.653Z,31.20
2018-12-06T14:23:32.949Z,31.20
2018-12-06T14:26:02.179Z,27.70
2018-12-06T14:28:31.423Z,32.63
2018-12-06T14:31:00.715Z,33.37
2018-12-06T14:33:29.941Z,40.17
2018-12-06T14:35:59.119Z,33.13
2018-12-06T14:38:28.390Z,31.03
2018-12-06T14:40:57.666Z,30.47
2018-12-06T14:43:26.891Z,35.03
2018-12-06T14:45:56.895Z,31.20
2018-12-06T14:48:26.152Z,27.50
2018-12-06T14:50:55.463Z,32.20
2018-12-06T14:53:24.748Z,29.00
2018-12-06T14:55:54.122Z,39.93
2018-12-06T14:58:23.379Z,28.60
2018-12-06T15:00:52.664Z,24.80
2018-12-06T15:03:21.919Z,31.37
2018-12-06T15:05:51.205Z,28.40
2018-12-06T15:08:20.465Z,20.63
2018-12-06T15:10:49.697Z,24.53
2018-12-06T15:13:18.946Z,24.15
2018-12-06T15:15:48.143Z,25.70
2018-12-06T15:18:17.323Z,24.70
2018-12-06T15:20:46.553Z,27.00
2018-12-06T15:23:15.763Z,33.53
2018-12-06T15:25:44.978Z,32.37
2018-12-06T15:28:14.422Z,31.07
2018-12-06T15:30:43.741Z,31.67
2018-12-06T15:33:12.974Z,29.07
2018-12-06T15:35:42.318Z,38.57
2018-12-06T15:38:11.591Z,25.70
2018-12-06T15:40:40.870Z,26.93
2018-12-06T15:43:10.512Z,27.17
2018-12-06T15:45:39.931Z,29.63
2018-12-06T15:48:09.509Z,28.92
2018-12-06T15:50:38.728Z,25.90
2018-12-06T15:53:07.964Z,28.50
2018-12-06T15:55:37.188Z,29.40
2018-12-06T15:58:06.451Z,27.80
2018-12-06T16:00:35.726Z,22.47
2018-12-06T16:03:05.023Z,27.90
2018-12-06T16:05:34.442Z,27.47
2018-12-06T16:08:03.724Z,34.10
2018-12-06T16:10:32.990Z,24.33
2018-12-06T16:13:02.308Z,23.43
2018-12-06T16:15:31.582Z,27.67
2018-12-06T16:18:00.910Z,25.57
2018-12-06T16:20:30.190Z,27.93
2018-12-06T16:22:59.526Z,22.87
2018-12-06T16:25:28.753Z,25.87
2018-12-06T16:28:00.849Z,24.20
2018-12-06T16:30:30.091Z,19.13
2018-12-06T16:32:59.348Z,18.57
2018-12-06T16:35:28.562Z,21.57
2018-12-06T16:37:57.844Z,18.03
2018-12-06T16:40:27.178Z,19.13
2018-12-06T16:42:56.444Z,21.40
2018-12-06T16:45:25.685Z,20.60
2018-12-06T16:47:55.053Z,21.43
2018-12-06T16:50:24.306Z,25.73
2018-12-06T16:52:53.529Z,18.00
2018-12-06T16:55:22.757Z,19.83
2018-12-06T16:57:52.011Z,17.87
2018-12-06T17:00:21.905Z,20.60
2018-12-06T17:02:51.167Z,25.70
2018-12-06T17:05:20.406Z,18.03
2018-12-06T17:07:49.739Z,16.57
2018-12-06T17:10:19.275Z,15.53
2018-12-06T17:12:48.507Z,16.00
2018-12-06T17:15:18.763Z,17.40
2018-12-06T17:17:48.044Z,16.20
2018-12-06T17:20:17.986Z,19.93
2018-12-06T17:22:47.216Z,17.57
2018-12-06T17:25:17.375Z,18.93
2018-12-06T17:27:46.707Z,16.93
2018-12-06T17:30:16.860Z,20.70
2018-12-06T17:32:46.120Z,18.70
2018-12-06T17:35:16.474Z,14.80
2018-12-06T17:37:45.795Z,14.07
2018-12-06T17:55:20.654Z,17.77
2018-12-06T17:57:49.970Z,24.77
2018-12-06T18:00:20.013Z,29.97
2018-12-06T18:02:49.301Z,28.53
2018-12-06T18:05:18.619Z,21.17
2018-12-06T18:07:47.802Z,18.87
2018-12-06T18:10:18.035Z,13.20
2018-12-06T18:12:47.296Z,27.50
2018-12-06T18:15:17.337Z,15.13
2018-12-06T18:17:46.812Z,21.10
2018-12-06T18:20:17.424Z,14.67
2018-12-06T18:22:46.687Z,23.03
2018-12-06T18:25:16.831Z,18.77
2018-12-06T18:27:46.209Z,17.33
2018-12-06T18:30:17.821Z,20.30
2018-12-06T18:32:47.042Z,18.70
2018-12-06T18:35:17.593Z,22.20
2018-12-06T18:37:46.994Z,16.93
2018-12-06T18:40:17.419Z,14.93
2018-12-06T18:42:46.802Z,19.03
2018-12-06T18:45:17.025Z,20.27
2018-12-06T18:47:46.371Z,17.20
2018-12-06T18:50:16.756Z,20.90
2018-12-06T18:52:45.939Z,13.83
2018-12-06T18:55:16.181Z,20.20
2018-12-06T18:57:45.515Z,13.43
2018-12-06T19:00:16.411Z,16.80
2018-12-06T19:02:46.982Z,17.73
2018-12-06T19:05:17.066Z,14.43
2018-12-06T19:07:46.343Z,14.43
2018-12-06T19:10:17.439Z,11.93
2018-12-06T19:12:46.628Z,13.15
2018-12-06T19:15:18.705Z,12.05
2018-12-06T19:17:47.987Z,10.10
2018-12-06T19:20:18.078Z,12.83
2018-12-06T19:22:47.337Z,12.30
2018-12-06T19:25:18.648Z,10.45
2018-12-06T19:27:47.907Z,10.80
2018-12-06T19:30:17.921Z,11.30
2018-12-06T19:32:47.300Z,11.40
2018-12-06T19:35:17.300Z,9.20
2018-12-06T19:37:48.405Z,10.20
2018-12-06T19:40:18.202Z,10.23
2018-12-06T19:42:47.423Z,9.93
2018-12-06T19:45:17.578Z,8.97
2018-12-06T19:47:46.849Z,12.23
2018-12-06T19:50:16.859Z,18.40
2018-12-06T19:52:46.093Z,12.77
2018-12-06T19:55:15.637Z,12.07
2018-12-06T19:57:44.881Z,9.90
2018-12-06T20:00:14.919Z,12.97
2018-12-06T20:02:44.256Z,8.60
2018-12-06T20:05:14.219Z,15.50
2018-12-06T20:07:43.532Z,11.20
2018-12-06T20:10:12.810Z,14.60
2018-12-06T20:12:42.144Z,10.18
2018-12-06T20:15:11.435Z,9.10
2018-12-06T20:17:40.908Z,10.30
2018-12-06T20:20:10.166Z,10.80
2018-12-06T20:22:39.488Z,27.60
2018-12-06T20:25:08.754Z,17.27
2018-12-06T20:27:38.692Z,15.90
2018-12-06T20:30:07.986Z,11.60
2018-12-06T20:32:37.403Z,13.60
2018-12-06T20:35:06.750Z,8.37
2018-12-06T20:37:36.190Z,8.97
2018-12-06T20:40:05.836Z,8.63
2018-12-06T20:42:35.059Z,10.08
2018-12-06T20:45:04.318Z,11.17
2018-12-06T20:47:33.633Z,7.97
2018-12-06T20:50:02.884Z,7.73
2018-12-06T20:52:32.085Z,12.17
2018-12-06T20:55:01.403Z,10.60
2018-12-06T20:57:36.957Z,12.20
2018-12-06T20:59:59.902Z,8.83
2018-12-06T21:02:29.428Z,8.53
2018-12-06T21:04:58.638Z,7.70
2018-12-06T21:07:27.831Z,9.37
2018-12-06T21:09:57.326Z,7.50
2018-12-06T21:12:26.580Z,9.80
2018-12-06T21:14:55.886Z,10.10
2018-12-06T21:17:25.121Z,9.23
2018-12-06T21:19:54.458Z,8.43
2018-12-06T21:22:23.739Z,8.98
2018-12-06T21:24:53.033Z,8.47
2018-12-06T21:27:22.237Z,8.70
2018-12-06T21:29:51.496Z,12.70
2018-12-06T21:32:20.852Z,11.10
2018-12-06T21:34:50.153Z,9.40
2018-12-06T21:37:19.461Z,9.17
2018-12-06T21:39:48.743Z,6.83
2018-12-06T21:42:17.914Z,8.33
2018-12-06T21:44:47.325Z,7.90
2018-12-06T21:47:21.830Z,7.97
2018-12-06T21:49:51.093Z,10.67
2018-12-06T21:52:20.310Z,7.23
2018-12-06T21:54:49.613Z,8.53
2018-12-06T21:57:18.812Z,6.17
2018-12-06T21:59:48.099Z,10.53
2018-12-06T22:02:23.815Z,7.80
2018-12-06T22:04:54.143Z,8.25
2018-12-06T22:07:23.377Z,7.63
2018-12-06T22:09:52.628Z,6.90
2018-12-06T22:12:21.882Z,6.20
2018-12-06T22:14:51.182Z,6.63
2018-12-06T22:17:20.414Z,6.63
2018-12-06T22:19:49.640Z,6.70
2018-12-06T22:22:18.892Z,6.03
2018-12-06T22:24:48.110Z,9.18
2018-12-06T22:27:18.108Z,5.43
2018-12-06T22:29:47.329Z,5.00
2018-12-06T22:32:17.124Z,6.45
2018-12-06T22:34:46.433Z,5.80
2018-12-06T22:37:15.716Z,6.67
2018-12-06T22:39:44.938Z,5.63
2018-12-06T22:42:14.747Z,5.07
2018-12-06T22:44:44.121Z,5.07
2018-12-06T22:47:14.025Z,5.70
2018-12-06T22:49:43.370Z,4.80
2018-12-06T22:52:13.284Z,6.60
2018-12-06T22:54:42.536Z,5.23
2018-12-06T22:57:12.000Z,4.80
2018-12-06T22:59:41.283Z,4.57
2018-12-06T23:02:10.643Z,4.28
2018-12-06T23:04:39.950Z,6.40
2018-12-06T23:07:09.230Z,6.90
2018-12-06T23:09:38.444Z,7.50
2018-12-06T23:12:07.781Z,4.63
2018-12-06T23:14:37.165Z,4.80
2018-12-06T23:17:06.354Z,4.33
2018-12-06T23:19:35.574Z,6.93
2018-12-06T23:22:04.818Z,4.87
2018-12-06T23:24:34.046Z,4.43
2018-12-06T23:27:03.317Z,4.03
2018-12-06T23:29:32.536Z,4.37
2018-12-06T23:32:01.778Z,4.47
2018-12-06T23:34:30.969Z,4.40
2018-12-06T23:37:00.215Z,5.62
2018-12-06T23:39:29.430Z,4.30
2018-12-06T23:41:58.642Z,5.60
2018-12-06T23:44:27.970Z,4.20
2018-12-06T23:46:57.228Z,4.73
2018-12-06T23:49:26.503Z,8.53
2018-12-06T23:51:55.727Z,3.83
2018-12-06T23:54:24.980Z,4.95
2018-12-06T23:56:54.229Z,4.27
2018-12-06T23:59:23.469Z,7.43
